Wapella, Canada
Current Conditions -  °F | °C
As of 1:00 PM on Thursday 23 Oct 2014 (Local Time) from CYQV Reporting Station
Clear Clear  
Wind Chill: 54°   Ceiling: Unl
Heat Index: 54°   Visibility: 9mi
Dew Point: 41°   Wind: 8mph
Humidity: 62%   Direction: 180°S
Pressure: 29.69"   Gusts: NA
Location:  50.25°N, 101.97°W
Report Text: CYQV 231900Z AUTO 18007KT 9SM CLR 12/05 A2969 RMK SLP065 DENSITY ALT 1900FT
Loading
Personal Weather Stations






























Interactive Weather Map
Tropical Storm Tracking
New forecast layout! Learn more

10-Day Weather Forecast

Advertisements
Track Severe Weather on mobile